sensor_id;sensor_type;location;lat;lon;timestamp;P1;durP1;ratioP1;P2;durP2;ratioP2
357;SDS011;167;47.558;7.602;2023-04-21T00:01:11;9.40;;;8.50;;
357;SDS011;167;47.558;7.602;2023-04-21T00:03:38;10.13;;;9.13;;
357;SDS011;167;47.558;7.602;2023-04-21T00:06:05;8.43;;;7.63;;
357;SDS011;167;47.558;7.602;2023-04-21T00:08:33;8.60;;;7.80;;
357;SDS011;167;47.558;7.602;2023-04-21T00:11:04;9.17;;;8.37;;
357;SDS011;167;47.558;7.602;2023-04-21T00:13:30;9.53;;;8.73;;
357;SDS011;167;47.558;7.602;2023-04-21T00:15:56;8.30;;;7.60;;
357;SDS011;167;47.558;7.602;2023-04-21T00:18:21;9.00;;;7.90;;
357;SDS011;167;47.558;7.602;2023-04-21T00:20:47;9.20;;;7.70;;
357;SDS011;167;47.558;7.602;2023-04-21T00:23:13;9.33;;;8.43;;
357;SDS011;167;47.558;7.602;2023-04-21T00:25:39;10.10;;;8.63;;
357;SDS011;167;47.558;7.602;2023-04-21T00:28:05;10.07;;;9.17;;
357;SDS011;167;47.558;7.602;2023-04-21T00:30:31;9.63;;;8.70;;
357;SDS011;167;47.558;7.602;2023-04-21T00:32:57;10.73;;;9.70;;
357;SDS011;167;47.558;7.602;2023-04-21T00:35:23;9.70;;;8.70;;
357;SDS011;167;47.558;7.602;2023-04-21T00:37:50;10.43;;;8.60;;
357;SDS011;167;47.558;7.602;2023-04-21T00:40:16;10.93;;;9.27;;
357;SDS011;167;47.558;7.602;2023-04-21T00:42:41;9.53;;;8.53;;
357;SDS011;167;47.558;7.602;2023-04-21T00:45:07;11.67;;;10.47;;
357;SDS011;167;47.558;7.602;2023-04-21T00:47:33;12.23;;;8.77;;
357;SDS011;167;47.558;7.602;2023-04-21T00:49:59;10.07;;;9.10;;
357;SDS011;167;47.558;7.602;2023-04-21T00:52:25;10.37;;;9.13;;
357;SDS011;167;47.558;7.602;2023-04-21T00:54:52;9.57;;;8.53;;
357;SDS011;167;47.558;7.602;2023-04-21T00:57:19;9.83;;;8.83;;
357;SDS011;167;47.558;7.602;2023-04-21T00:59:45;10.63;;;9.20;;
357;SDS011;167;47.558;7.602;2023-04-21T01:02:11;9.17;;;8.40;;
357;SDS011;167;47.558;7.602;2023-04-21T01:04:38;10.10;;;9.07;;
357;SDS011;167;47.558;7.602;2023-04-21T01:07:05;10.70;;;9.63;;
357;SDS011;167;47.558;7.602;2023-04-21T01:09:32;9.60;;;8.60;;
357;SDS011;167;47.558;7.602;2023-04-21T01:12:06;9.13;;;8.40;;
357;SDS011;167;47.558;7.602;2023-04-21T01:14:32;9.60;;;8.33;;
357;SDS011;167;47.558;7.602;2023-04-21T01:16:58;8.33;;;7.60;;
357;SDS011;167;47.558;7.602;2023-04-21T01:19:24;9.80;;;8.90;;
357;SDS011;167;47.558;7.602;2023-04-21T01:21:51;9.10;;;8.30;;
357;SDS011;167;47.558;7.602;2023-04-21T01:24:34;10.57;;;9.57;;
357;SDS011;167;47.558;7.602;2023-04-21T01:27:00;8.40;;;7.70;;
357;SDS011;167;47.558;7.602;2023-04-21T01:29:26;9.70;;;8.77;;
357;SDS011;167;47.558;7.602;2023-04-21T01:31:51;13.97;;;11.77;;
357;SDS011;167;47.558;7.602;2023-04-21T01:34:17;11.33;;;10.10;;
357;SDS011;167;47.558;7.602;2023-04-21T01:36:43;11.83;;;10.63;;
357;SDS011;167;47.558;7.602;2023-04-21T01:39:09;13.10;;;11.07;;
357;SDS011;167;47.558;7.602;2023-04-21T01:41:35;11.53;;;10.40;;
357;SDS011;167;47.558;7.602;2023-04-21T01:44:01;12.57;;;11.23;;
357;SDS011;167;47.558;7.602;2023-04-21T01:46:27;12.63;;;11.30;;
357;SDS011;167;47.558;7.602;2023-04-21T01:48:53;12.07;;;10.80;;
357;SDS011;167;47.558;7.602;2023-04-21T01:51:19;13.57;;;12.23;;
357;SDS011;167;47.558;7.602;2023-04-21T01:53:45;12.00;;;10.80;;
357;SDS011;167;47.558;7.602;2023-04-21T01:56:14;11.40;;;10.27;;
357;SDS011;167;47.558;7.602;2023-04-21T01:58:40;11.23;;;10.03;;
357;SDS011;167;47.558;7.602;2023-04-21T02:01:06;12.17;;;10.90;;
357;SDS011;167;47.558;7.602;2023-04-21T02:03:32;11.00;;;10.00;;
357;SDS011;167;47.558;7.602;2023-04-21T02:05:58;11.43;;;10.00;;
357;SDS011;167;47.558;7.602;2023-04-21T02:08:23;11.97;;;10.77;;
357;SDS011;167;47.558;7.602;2023-04-21T02:10:49;11.77;;;10.60;;
357;SDS011;167;47.558;7.602;2023-04-21T02:13:15;11.57;;;10.57;;
357;SDS011;167;47.558;7.602;2023-04-21T02:15:41;12.53;;;10.87;;
357;SDS011;167;47.558;7.602;2023-04-21T02:18:07;11.13;;;9.57;;
357;SDS011;167;47.558;7.602;2023-04-21T02:20:34;12.77;;;10.57;;
357;SDS011;167;47.558;7.602;2023-04-21T02:23:00;12.40;;;11.10;;
357;SDS011;167;47.558;7.602;2023-04-21T02:25:26;13.03;;;11.60;;
357;SDS011;167;47.558;7.602;2023-04-21T02:27:52;14.03;;;12.20;;
357;SDS011;167;47.558;7.602;2023-04-21T02:30:18;11.60;;;10.40;;
357;SDS011;167;47.558;7.602;2023-04-21T02:32:44;13.70;;;12.40;;
357;SDS011;167;47.558;7.602;2023-04-21T02:35:10;13.93;;;12.17;;
357;SDS011;167;47.558;7.602;2023-04-21T02:37:36;15.20;;;12.07;;
357;SDS011;167;47.558;7.602;2023-04-21T02:40:02;12.87;;;11.57;;
357;SDS011;167;47.558;7.602;2023-04-21T02:42:29;13.63;;;12.23;;
357;SDS011;167;47.558;7.602;2023-04-21T02:44:57;13.53;;;12.10;;
357;SDS011;167;47.558;7.602;2023-04-21T02:47:23;13.37;;;10.90;;
357;SDS011;167;47.558;7.602;2023-04-21T02:49:48;11.50;;;10.30;;
357;SDS011;167;47.558;7.602;2023-04-21T02:52:14;12.40;;;11.10;;
357;SDS011;167;47.558;7.602;2023-04-21T02:54:40;11.30;;;10.23;;
357;SDS011;167;47.558;7.602;2023-04-21T02:57:06;10.00;;;9.00;;
357;SDS011;167;47.558;7.602;2023-04-21T02:59:32;11.30;;;10.10;;
357;SDS011;167;47.558;7.602;2023-04-21T03:01:58;12.53;;;11.27;;
357;SDS011;167;47.558;7.602;2023-04-21T03:04:24;11.90;;;10.70;;
357;SDS011;167;47.558;7.602;2023-04-21T03:06:51;13.47;;;11.70;;
357;SDS011;167;47.558;7.602;2023-04-21T03:09:16;12.40;;;11.10;;
357;SDS011;167;47.558;7.602;2023-04-21T03:11:42;15.00;;;12.30;;
357;SDS011;167;47.558;7.602;2023-04-21T03:14:08;11.07;;;9.43;;
357;SDS011;167;47.558;7.602;2023-04-21T03:16:34;10.57;;;9.43;;
357;SDS011;167;47.558;7.602;2023-04-21T03:19:00;11.60;;;10.37;;
357;SDS011;167;47.558;7.602;2023-04-21T03:21:26;10.77;;;9.13;;
357;SDS011;167;47.558;7.602;2023-04-21T03:23:52;10.47;;;9.43;;
357;SDS011;167;47.558;7.602;2023-04-21T03:26:18;9.70;;;8.80;;
357;SDS011;167;47.558;7.602;2023-04-21T03:28:44;11.93;;;9.70;;
357;SDS011;167;47.558;7.602;2023-04-21T03:31:10;11.23;;;9.93;;
357;SDS011;167;47.558;7.602;2023-04-21T03:33:36;11.67;;;10.30;;
357;SDS011;167;47.558;7.602;2023-04-21T03:36:02;9.43;;;8.53;;
357;SDS011;167;47.558;7.602;2023-04-21T03:38:28;9.50;;;8.60;;
357;SDS011;167;47.558;7.602;2023-04-21T03:40:54;8.77;;;7.87;;
357;SDS011;167;47.558;7.602;2023-04-21T03:43:20;8.07;;;7.33;;
357;SDS011;167;47.558;7.602;2023-04-21T03:45:46;9.03;;;8.20;;
357;SDS011;167;47.558;7.602;2023-04-21T03:48:12;8.63;;;7.93;;
357;SDS011;167;47.558;7.602;2023-04-21T03:50:38;9.07;;;8.17;;
357;SDS011;167;47.558;7.602;2023-04-21T03:53:04;11.27;;;7.70;;
357;SDS011;167;47.558;7.602;2023-04-21T03:55:30;8.27;;;7.30;;
357;SDS011;167;47.558;7.602;2023-04-21T03:57:55;9.40;;;8.40;;
357;SDS011;167;47.558;7.602;2023-04-21T04:00:21;7.83;;;7.13;;
357;SDS011;167;47.558;7.602;2023-04-21T04:02:47;8.77;;;8.00;;
357;SDS011;167;47.558;7.602;2023-04-21T04:05:13;7.37;;;6.67;;
357;SDS011;167;47.558;7.602;2023-04-21T04:07:40;6.73;;;6.13;;
357;SDS011;167;47.558;7.602;2023-04-21T04:10:06;11.50;;;10.30;;
357;SDS011;167;47.558;7.602;2023-04-21T04:12:32;6.93;;;6.27;;
357;SDS011;167;47.558;7.602;2023-04-21T04:14:58;7.80;;;7.10;;
357;SDS011;167;47.558;7.602;2023-04-21T04:17:24;7.60;;;6.80;;
357;SDS011;167;47.558;7.602;2023-04-21T04:19:50;6.73;;;6.10;;
357;SDS011;167;47.558;7.602;2023-04-21T04:22:16;7.20;;;6.50;;
357;SDS011;167;47.558;7.602;2023-04-21T04:24:42;8.33;;;7.60;;
357;SDS011;167;47.558;7.602;2023-04-21T04:27:09;7.07;;;6.47;;
357;SDS011;167;47.558;7.602;2023-04-21T04:29:37;9.03;;;8.07;;
357;SDS011;167;47.558;7.602;2023-04-21T04:32:03;7.43;;;6.63;;
357;SDS011;167;47.558;7.602;2023-04-21T04:34:30;7.87;;;7.17;;
357;SDS011;167;47.558;7.602;2023-04-21T04:36:56;7.17;;;6.57;;
357;SDS011;167;47.558;7.602;2023-04-21T04:39:22;8.83;;;7.97;;
357;SDS011;167;47.558;7.602;2023-04-21T04:41:49;7.93;;;7.13;;
357;SDS011;167;47.558;7.602;2023-04-21T04:44:16;6.23;;;5.60;;
357;SDS011;167;47.558;7.602;2023-04-21T04:46:42;6.20;;;5.60;;
357;SDS011;167;47.558;7.602;2023-04-21T04:49:09;8.87;;;7.20;;
357;SDS011;167;47.558;7.602;2023-04-21T04:51:35;7.50;;;6.80;;
357;SDS011;167;47.558;7.602;2023-04-21T04:54:01;7.07;;;6.57;;
357;SDS011;167;47.558;7.602;2023-04-21T04:56:28;6.87;;;6.33;;
357;SDS011;167;47.558;7.602;2023-04-21T04:58:54;7.57;;;6.87;;
357;SDS011;167;47.558;7.602;2023-04-21T05:01:20;7.97;;;7.23;;
357;SDS011;167;47.558;7.602;2023-04-21T05:03:49;9.43;;;7.27;;
357;SDS011;167;47.558;7.602;2023-04-21T05:06:15;6.30;;;5.80;;
357;SDS011;167;47.558;7.602;2023-04-21T05:08:41;9.00;;;6.60;;
357;SDS011;167;47.558;7.602;2023-04-21T05:11:07;8.30;;;6.67;;
357;SDS011;167;47.558;7.602;2023-04-21T05:13:33;7.70;;;7.00;;
357;SDS011;167;47.558;7.602;2023-04-21T05:15:59;8.17;;;7.47;;
357;SDS011;167;47.558;7.602;2023-04-21T05:18:26;7.33;;;6.73;;
357;SDS011;167;47.558;7.602;2023-04-21T05:20:52;6.67;;;6.07;;
357;SDS011;167;47.558;7.602;2023-04-21T05:23:18;7.17;;;6.43;;
357;SDS011;167;47.558;7.602;2023-04-21T05:25:44;7.63;;;6.93;;
357;SDS011;167;47.558;7.602;2023-04-21T05:28:11;8.47;;;7.77;;
357;SDS011;167;47.558;7.602;2023-04-21T05:30:37;6.17;;;5.67;;
357;SDS011;167;47.558;7.602;2023-04-21T05:33:03;7.20;;;6.27;;
357;SDS011;167;47.558;7.602;2023-04-21T05:35:29;6.93;;;6.10;;
357;SDS011;167;47.558;7.602;2023-04-21T05:37:55;7.93;;;7.20;;
357;SDS011;167;47.558;7.602;2023-04-21T05:40:21;8.37;;;7.47;;
357;SDS011;167;47.558;7.602;2023-04-21T05:42:47;7.50;;;6.00;;
357;SDS011;167;47.558;7.602;2023-04-21T05:45:13;5.60;;;5.10;;
357;SDS011;167;47.558;7.602;2023-04-21T05:47:39;8.60;;;6.13;;
357;SDS011;167;47.558;7.602;2023-04-21T05:50:06;6.40;;;5.80;;
357;SDS011;167;47.558;7.602;2023-04-21T05:52:32;6.17;;;5.67;;
357;SDS011;167;47.558;7.602;2023-04-21T05:54:59;6.60;;;5.03;;
357;SDS011;167;47.558;7.602;2023-04-21T05:57:25;5.47;;;5.03;;
357;SDS011;167;47.558;7.602;2023-04-21T05:59:51;5.00;;;4.60;;
357;SDS011;167;47.558;7.602;2023-04-21T06:02:17;4.97;;;4.57;;
357;SDS011;167;47.558;7.602;2023-04-21T06:04:43;5.07;;;4.57;;
357;SDS011;167;47.558;7.602;2023-04-21T06:07:09;4.30;;;3.93;;
357;SDS011;167;47.558;7.602;2023-04-21T06:09:37;4.40;;;4.10;;
357;SDS011;167;47.558;7.602;2023-04-21T06:12:03;5.10;;;4.70;;
357;SDS011;167;47.558;7.602;2023-04-21T06:14:29;4.50;;;4.10;;
357;SDS011;167;47.558;7.602;2023-04-21T06:16:55;5.50;;;5.00;;
357;SDS011;167;47.558;7.602;2023-04-21T06:19:21;4.33;;;4.00;;
357;SDS011;167;47.558;7.602;2023-04-21T06:21:47;4.73;;;4.33;;
357;SDS011;167;47.558;7.602;2023-04-21T06:24:13;5.23;;;4.73;;
357;SDS011;167;47.558;7.602;2023-04-21T06:26:40;5.30;;;4.90;;
357;SDS011;167;47.558;7.602;2023-04-21T06:29:05;5.00;;;4.60;;
357;SDS011;167;47.558;7.602;2023-04-21T06:31:31;4.07;;;3.77;;
357;SDS011;167;47.558;7.602;2023-04-21T06:33:57;5.03;;;4.63;;
357;SDS011;167;47.558;7.602;2023-04-21T06:36:23;5.50;;;5.00;;
357;SDS011;167;47.558;7.602;2023-04-21T06:38:49;4.53;;;4.13;;
357;SDS011;167;47.558;7.602;2023-04-21T06:41:16;8.13;;;4.40;;
357;SDS011;167;47.558;7.602;2023-04-21T06:43:42;4.93;;;4.53;;
357;SDS011;167;47.558;7.602;2023-04-21T06:46:08;4.40;;;4.00;;
357;SDS011;167;47.558;7.602;2023-04-21T06:48:34;3.87;;;3.60;;
357;SDS011;167;47.558;7.602;2023-04-21T06:51:00;4.80;;;4.40;;
357;SDS011;167;47.558;7.602;2023-04-21T06:53:26;4.50;;;4.10;;
357;SDS011;167;47.558;7.602;2023-04-21T06:55:52;3.57;;;3.37;;
357;SDS011;167;47.558;7.602;2023-04-21T06:58:18;3.27;;;3.07;;
357;SDS011;167;47.558;7.602;2023-04-21T07:00:45;4.63;;;3.43;;
357;SDS011;167;47.558;7.602;2023-04-21T07:03:11;3.70;;;3.40;;
357;SDS011;167;47.558;7.602;2023-04-21T07:05:37;3.27;;;3.07;;
357;SDS011;167;47.558;7.602;2023-04-21T07:08:03;4.10;;;3.80;;
357;SDS011;167;47.558;7.602;2023-04-21T07:10:28;3.70;;;3.40;;
357;SDS011;167;47.558;7.602;2023-04-21T07:12:55;3.60;;;3.30;;
357;SDS011;167;47.558;7.602;2023-04-21T07:15:21;3.20;;;3.00;;
357;SDS011;167;47.558;7.602;2023-04-21T07:17:47;4.53;;;4.23;;
357;SDS011;167;47.558;7.602;2023-04-21T07:20:13;3.00;;;2.80;;
357;SDS011;167;47.558;7.602;2023-04-21T07:22:41;3.90;;;3.70;;
357;SDS011;167;47.558;7.602;2023-04-21T07:25:07;4.00;;;3.70;;
357;SDS011;167;47.558;7.602;2023-04-21T07:27:33;5.23;;;4.83;;
357;SDS011;167;47.558;7.602;2023-04-21T07:30:05;3.40;;;3.20;;
357;SDS011;167;47.558;7.602;2023-04-21T07:32:31;5.67;;;5.13;;
357;SDS011;167;47.558;7.602;2023-04-21T07:34:58;3.43;;;3.23;;
357;SDS011;167;47.558;7.602;2023-04-21T07:37:25;2.97;;;2.77;;
357;SDS011;167;47.558;7.602;2023-04-21T07:39:51;5.33;;;3.77;;
357;SDS011;167;47.558;7.602;2023-04-21T07:42:17;3.80;;;3.60;;
357;SDS011;167;47.558;7.602;2023-04-21T07:44:43;3.10;;;2.90;;
357;SDS011;167;47.558;7.602;2023-04-21T07:47:09;2.57;;;2.37;;
357;SDS011;167;47.558;7.602;2023-04-21T07:49:35;2.40;;;2.30;;
357;SDS011;167;47.558;7.602;2023-04-21T07:52:01;3.43;;;3.27;;
357;SDS011;167;47.558;7.602;2023-04-21T07:54:27;2.87;;;2.77;;
357;SDS011;167;47.558;7.602;2023-04-21T07:56:53;3.60;;;3.30;;
357;SDS011;167;47.558;7.602;2023-04-21T07:59:19;3.37;;;3.17;;
357;SDS011;167;47.558;7.602;2023-04-21T08:01:45;2.90;;;2.70;;
357;SDS011;167;47.558;7.602;2023-04-21T08:04:11;3.80;;;3.60;;
357;SDS011;167;47.558;7.602;2023-04-21T08:06:37;3.57;;;3.37;;
357;SDS011;167;47.558;7.602;2023-04-21T08:09:03;3.30;;;3.10;;
357;SDS011;167;47.558;7.602;2023-04-21T08:11:29;2.80;;;2.50;;
357;SDS011;167;47.558;7.602;2023-04-21T08:13:55;3.57;;;3.37;;
357;SDS011;167;47.558;7.602;2023-04-21T08:16:21;3.37;;;3.20;;
357;SDS011;167;47.558;7.602;2023-04-21T08:18:47;3.40;;;3.20;;
357;SDS011;167;47.558;7.602;2023-04-21T08:21:13;3.77;;;3.40;;
357;SDS011;167;47.558;7.602;2023-04-21T08:23:39;3.80;;;3.60;;
357;SDS011;167;47.558;7.602;2023-04-21T08:26:05;3.60;;;3.40;;
357;SDS011;167;47.558;7.602;2023-04-21T08:28:31;3.97;;;3.77;;
357;SDS011;167;47.558;7.602;2023-04-21T08:30:57;3.50;;;3.40;;
357;SDS011;167;47.558;7.602;2023-04-21T08:33:25;3.70;;;3.50;;
357;SDS011;167;47.558;7.602;2023-04-21T08:35:51;4.80;;;3.97;;
357;SDS011;167;47.558;7.602;2023-04-21T08:38:17;3.67;;;3.47;;
357;SDS011;167;47.558;7.602;2023-04-21T08:40:43;3.40;;;3.20;;
357;SDS011;167;47.558;7.602;2023-04-21T08:43:10;3.80;;;3.60;;
357;SDS011;167;47.558;7.602;2023-04-21T08:45:36;3.70;;;3.50;;
357;SDS011;167;47.558;7.602;2023-04-21T08:48:03;3.47;;;3.27;;
357;SDS011;167;47.558;7.602;2023-04-21T08:50:30;4.33;;;4.03;;
357;SDS011;167;47.558;7.602;2023-04-21T08:52:57;4.07;;;3.77;;
357;SDS011;167;47.558;7.602;2023-04-21T08:55:27;4.07;;;3.80;;
357;SDS011;167;47.558;7.602;2023-04-21T08:57:53;3.60;;;3.40;;
357;SDS011;167;47.558;7.602;2023-04-21T09:00:20;4.60;;;4.20;;
357;SDS011;167;47.558;7.602;2023-04-21T09:02:53;3.87;;;3.57;;
357;SDS011;167;47.558;7.602;2023-04-21T09:05:23;4.20;;;3.90;;
357;SDS011;167;47.558;7.602;2023-04-21T09:07:50;4.13;;;3.83;;
357;SDS011;167;47.558;7.602;2023-04-21T09:10:21;3.80;;;3.57;;
357;SDS011;167;47.558;7.602;2023-04-21T09:12:51;2.73;;;2.60;;
357;SDS011;167;47.558;7.602;2023-04-21T09:15:19;3.63;;;3.33;;
357;SDS011;167;47.558;7.602;2023-04-21T09:17:45;4.20;;;3.90;;
357;SDS011;167;47.558;7.602;2023-04-21T09:20:15;3.37;;;3.17;;
357;SDS011;167;47.558;7.602;2023-04-21T09:22:42;3.63;;;3.43;;
357;SDS011;167;47.558;7.602;2023-04-21T09:25:08;4.20;;;3.57;;
357;SDS011;167;47.558;7.602;2023-04-21T09:27:35;4.10;;;3.83;;
357;SDS011;167;47.558;7.602;2023-04-21T09:30:02;3.20;;;3.00;;
357;SDS011;167;47.558;7.602;2023-04-21T09:32:28;3.10;;;2.90;;
357;SDS011;167;47.558;7.602;2023-04-21T09:34:58;3.50;;;3.30;;
357;SDS011;167;47.558;7.602;2023-04-21T09:37:24;3.43;;;3.23;;
357;SDS011;167;47.558;7.602;2023-04-21T09:39:50;3.53;;;3.23;;
357;SDS011;167;47.558;7.602;2023-04-21T09:42:16;3.40;;;3.23;;
357;SDS011;167;47.558;7.602;2023-04-21T09:44:42;4.80;;;4.30;;
357;SDS011;167;47.558;7.602;2023-04-21T09:47:09;3.13;;;2.93;;
357;SDS011;167;47.558;7.602;2023-04-21T09:49:36;4.00;;;3.80;;
357;SDS011;167;47.558;7.602;2023-04-21T09:52:08;4.10;;;3.80;;
357;SDS011;167;47.558;7.602;2023-04-21T09:54:35;4.23;;;3.80;;
357;SDS011;167;47.558;7.602;2023-04-21T09:57:02;3.47;;;3.27;;
357;SDS011;167;47.558;7.602;2023-04-21T09:59:38;3.53;;;3.30;;
357;SDS011;167;47.558;7.602;2023-04-21T10:02:06;3.80;;;3.60;;
357;SDS011;167;47.558;7.602;2023-04-21T10:04:32;12.10;;;4.57;;
357;SDS011;167;47.558;7.602;2023-04-21T10:06:59;3.47;;;3.27;;
357;SDS011;167;47.558;7.602;2023-04-21T10:09:26;4.00;;;3.73;;
357;SDS011;167;47.558;7.602;2023-04-21T10:11:55;3.17;;;2.97;;
357;SDS011;167;47.558;7.602;2023-04-21T10:14:24;3.40;;;3.20;;
357;SDS011;167;47.558;7.602;2023-04-21T10:16:56;3.53;;;3.33;;
357;SDS011;167;47.558;7.602;2023-04-21T10:19:23;2.53;;;2.43;;
357;SDS011;167;47.558;7.602;2023-04-21T10:21:49;3.10;;;2.90;;
357;SDS011;167;47.558;7.602;2023-04-21T10:24:15;3.30;;;3.10;;
357;SDS011;167;47.558;7.602;2023-04-21T10:26:41;3.73;;;3.43;;
357;SDS011;167;47.558;7.602;2023-04-21T10:29:07;7.03;;;3.30;;
357;SDS011;167;47.558;7.602;2023-04-21T10:31:34;3.30;;;3.10;;
357;SDS011;167;47.558;7.602;2023-04-21T10:39:07;3.43;;;3.23;;
357;SDS011;167;47.558;7.602;2023-04-21T10:41:36;3.23;;;3.07;;
357;SDS011;167;47.558;7.602;2023-04-21T10:49:05;3.90;;;3.60;;
357;SDS011;167;47.558;7.602;2023-04-21T10:51:31;2.33;;;2.23;;
357;SDS011;167;47.558;7.602;2023-04-21T10:53:57;2.77;;;2.63;;
357;SDS011;167;47.558;7.602;2023-04-21T10:56:24;2.93;;;2.83;;
357;SDS011;167;47.558;7.602;2023-04-21T10:58:50;3.57;;;3.37;;
357;SDS011;167;47.558;7.602;2023-04-21T11:01:17;2.40;;;2.30;;
357;SDS011;167;47.558;7.602;2023-04-21T11:03:43;3.03;;;2.83;;
357;SDS011;167;47.558;7.602;2023-04-21T11:06:15;2.83;;;2.63;;
357;SDS011;167;47.558;7.602;2023-04-21T11:08:54;4.70;;;3.60;;
357;SDS011;167;47.558;7.602;2023-04-21T11:11:20;3.97;;;3.77;;
357;SDS011;167;47.558;7.602;2023-04-21T11:13:47;2.97;;;2.77;;
357;SDS011;167;47.558;7.602;2023-04-21T11:16:13;3.60;;;3.40;;
357;SDS011;167;47.558;7.602;2023-04-21T11:18:40;3.80;;;3.57;;
357;SDS011;167;47.558;7.602;2023-04-21T11:21:10;3.20;;;2.90;;
357;SDS011;167;47.558;7.602;2023-04-21T11:23:40;3.90;;;3.60;;
357;SDS011;167;47.558;7.602;2023-04-21T11:26:06;3.63;;;3.33;;
357;SDS011;167;47.558;7.602;2023-04-21T11:28:32;3.50;;;3.30;;
357;SDS011;167;47.558;7.602;2023-04-21T11:30:58;3.70;;;3.40;;
357;SDS011;167;47.558;7.602;2023-04-21T11:33:26;3.47;;;3.27;;
357;SDS011;167;47.558;7.602;2023-04-21T11:35:53;3.70;;;3.43;;
357;SDS011;167;47.558;7.602;2023-04-21T11:38:23;3.73;;;3.33;;
357;SDS011;167;47.558;7.602;2023-04-21T11:40:49;3.20;;;3.00;;
357;SDS011;167;47.558;7.602;2023-04-21T11:43:15;3.60;;;3.40;;
357;SDS011;167;47.558;7.602;2023-04-21T11:45:41;3.63;;;3.27;;
357;SDS011;167;47.558;7.602;2023-04-21T11:48:16;5.30;;;4.20;;
357;SDS011;167;47.558;7.602;2023-04-21T11:50:46;4.50;;;3.63;;
357;SDS011;167;47.558;7.602;2023-04-21T11:53:13;4.23;;;3.90;;
357;SDS011;167;47.558;7.602;2023-04-21T11:55:43;4.03;;;3.73;;
357;SDS011;167;47.558;7.602;2023-04-21T11:58:09;4.17;;;3.87;;
357;SDS011;167;47.558;7.602;2023-04-21T12:00:36;3.37;;;3.17;;
357;SDS011;167;47.558;7.602;2023-04-21T12:03:02;4.00;;;3.80;;
357;SDS011;167;47.558;7.602;2023-04-21T12:05:34;3.10;;;2.90;;
357;SDS011;167;47.558;7.602;2023-04-21T12:08:00;3.43;;;3.20;;
357;SDS011;167;47.558;7.602;2023-04-21T12:10:28;4.20;;;3.90;;
357;SDS011;167;47.558;7.602;2023-04-21T12:12:55;3.40;;;3.20;;
357;SDS011;167;47.558;7.602;2023-04-21T12:15:21;3.17;;;2.97;;
357;SDS011;167;47.558;7.602;2023-04-21T12:20:17;2.57;;;2.47;;
357;SDS011;167;47.558;7.602;2023-04-21T12:22:43;3.70;;;2.97;;
357;SDS011;167;47.558;7.602;2023-04-21T12:25:09;3.20;;;3.00;;
357;SDS011;167;47.558;7.602;2023-04-21T12:27:35;3.13;;;2.93;;
357;SDS011;167;47.558;7.602;2023-04-21T12:30:01;3.47;;;3.27;;
357;SDS011;167;47.558;7.602;2023-04-21T12:32:28;3.50;;;3.20;;
357;SDS011;167;47.558;7.602;2023-04-21T12:34:54;4.07;;;3.70;;
357;SDS011;167;47.558;7.602;2023-04-21T12:37:20;3.30;;;3.10;;
357;SDS011;167;47.558;7.602;2023-04-21T12:39:46;4.27;;;4.07;;
357;SDS011;167;47.558;7.602;2023-04-21T12:42:12;3.40;;;3.20;;
357;SDS011;167;47.558;7.602;2023-04-21T12:44:38;3.60;;;3.40;;
357;SDS011;167;47.558;7.602;2023-04-21T12:47:04;2.67;;;2.53;;
357;SDS011;167;47.558;7.602;2023-04-21T12:49:30;3.27;;;3.03;;
357;SDS011;167;47.558;7.602;2023-04-21T12:51:56;4.57;;;3.23;;
357;SDS011;167;47.558;7.602;2023-04-21T12:54:22;3.47;;;3.27;;
357;SDS011;167;47.558;7.602;2023-04-21T12:56:48;3.90;;;3.60;;
357;SDS011;167;47.558;7.602;2023-04-21T12:59:14;4.53;;;4.13;;
357;SDS011;167;47.558;7.602;2023-04-21T13:01:40;6.80;;;3.20;;
357;SDS011;167;47.558;7.602;2023-04-21T13:04:07;5.60;;;2.93;;
357;SDS011;167;47.558;7.602;2023-04-21T13:06:33;3.70;;;3.50;;
357;SDS011;167;47.558;7.602;2023-04-21T13:08:59;3.60;;;3.30;;
357;SDS011;167;47.558;7.602;2023-04-21T13:11:25;3.83;;;3.53;;
357;SDS011;167;47.558;7.602;2023-04-21T13:13:51;4.03;;;3.73;;
357;SDS011;167;47.558;7.602;2023-04-21T13:16:17;3.43;;;3.23;;
357;SDS011;167;47.558;7.602;2023-04-21T13:18:43;3.87;;;3.63;;
357;SDS011;167;47.558;7.602;2023-04-21T13:21:09;6.97;;;4.20;;
357;SDS011;167;47.558;7.602;2023-04-21T13:23:35;4.13;;;3.73;;
357;SDS011;167;47.558;7.602;2023-04-21T13:26:01;3.70;;;3.40;;
357;SDS011;167;47.558;7.602;2023-04-21T13:28:27;3.30;;;3.10;;
357;SDS011;167;47.558;7.602;2023-04-21T13:30:54;3.83;;;3.63;;
357;SDS011;167;47.558;7.602;2023-04-21T13:33:20;2.93;;;2.73;;
357;SDS011;167;47.558;7.602;2023-04-21T13:35:46;4.03;;;3.73;;
357;SDS011;167;47.558;7.602;2023-04-21T13:38:12;3.87;;;3.63;;
357;SDS011;167;47.558;7.602;2023-04-21T13:40:38;3.40;;;3.20;;
357;SDS011;167;47.558;7.602;2023-04-21T13:43:04;3.30;;;3.13;;
357;SDS011;167;47.558;7.602;2023-04-21T13:45:30;3.30;;;3.10;;
357;SDS011;167;47.558;7.602;2023-04-21T13:47:56;3.17;;;2.97;;
357;SDS011;167;47.558;7.602;2023-04-21T13:50:25;3.10;;;2.90;;
357;SDS011;167;47.558;7.602;2023-04-21T13:52:51;2.73;;;2.53;;
357;SDS011;167;47.558;7.602;2023-04-21T13:55:17;2.50;;;2.40;;
357;SDS011;167;47.558;7.602;2023-04-21T13:57:42;3.70;;;3.50;;
357;SDS011;167;47.558;7.602;2023-04-21T14:00:09;3.23;;;3.07;;
357;SDS011;167;47.558;7.602;2023-04-21T14:02:35;3.67;;;3.47;;
357;SDS011;167;47.558;7.602;2023-04-21T14:05:02;3.03;;;2.83;;
357;SDS011;167;47.558;7.602;2023-04-21T14:07:28;3.37;;;3.07;;
357;SDS011;167;47.558;7.602;2023-04-21T14:09:54;3.37;;;3.17;;
357;SDS011;167;47.558;7.602;2023-04-21T14:12:21;2.47;;;2.37;;
357;SDS011;167;47.558;7.602;2023-04-21T14:14:48;4.97;;;3.63;;
357;SDS011;167;47.558;7.602;2023-04-21T14:17:14;3.97;;;3.67;;
357;SDS011;167;47.558;7.602;2023-04-21T14:19:40;5.23;;;3.43;;
357;SDS011;167;47.558;7.602;2023-04-21T14:22:06;4.97;;;4.57;;
357;SDS011;167;47.558;7.602;2023-04-21T14:24:32;3.37;;;3.17;;
357;SDS011;167;47.558;7.602;2023-04-21T14:26:58;2.67;;;2.50;;
357;SDS011;167;47.558;7.602;2023-04-21T14:29:25;3.20;;;3.00;;
357;SDS011;167;47.558;7.602;2023-04-21T14:31:51;2.80;;;2.70;;
357;SDS011;167;47.558;7.602;2023-04-21T14:34:21;3.33;;;3.10;;
357;SDS011;167;47.558;7.602;2023-04-21T14:36:47;2.90;;;2.80;;
357;SDS011;167;47.558;7.602;2023-04-21T14:39:14;2.93;;;2.73;;
357;SDS011;167;47.558;7.602;2023-04-21T14:41:40;3.50;;;3.30;;
357;SDS011;167;47.558;7.602;2023-04-21T14:44:05;4.10;;;3.73;;
357;SDS011;167;47.558;7.602;2023-04-21T14:46:32;3.80;;;3.50;;
357;SDS011;167;47.558;7.602;2023-04-21T14:48:58;3.87;;;3.67;;
357;SDS011;167;47.558;7.602;2023-04-21T14:51:24;4.40;;;4.10;;
357;SDS011;167;47.558;7.602;2023-04-21T14:53:50;6.80;;;6.30;;
357;SDS011;167;47.558;7.602;2023-04-21T14:56:16;4.00;;;3.60;;
357;SDS011;167;47.558;7.602;2023-04-21T14:58:43;4.73;;;4.37;;
357;SDS011;167;47.558;7.602;2023-04-21T15:01:09;4.57;;;4.27;;
357;SDS011;167;47.558;7.602;2023-04-21T15:03:35;4.97;;;4.23;;
357;SDS011;167;47.558;7.602;2023-04-21T15:06:01;4.50;;;4.20;;
357;SDS011;167;47.558;7.602;2023-04-21T15:08:27;4.30;;;4.00;;
357;SDS011;167;47.558;7.602;2023-04-21T15:10:53;4.50;;;4.10;;
357;SDS011;167;47.558;7.602;2023-04-21T15:13:20;4.30;;;4.00;;
357;SDS011;167;47.558;7.602;2023-04-21T15:15:46;3.43;;;3.23;;
357;SDS011;167;47.558;7.602;2023-04-21T15:18:14;4.43;;;4.13;;
357;SDS011;167;47.558;7.602;2023-04-21T15:20:39;3.80;;;3.60;;
357;SDS011;167;47.558;7.602;2023-04-21T15:23:06;3.47;;;3.27;;
357;SDS011;167;47.558;7.602;2023-04-21T15:25:32;3.87;;;3.57;;
357;SDS011;167;47.558;7.602;2023-04-21T15:28:00;5.50;;;5.10;;
357;SDS011;167;47.558;7.602;2023-04-21T15:30:26;3.40;;;3.20;;
357;SDS011;167;47.558;7.602;2023-04-21T15:32:52;5.00;;;3.50;;
357;SDS011;167;47.558;7.602;2023-04-21T15:35:18;4.07;;;3.77;;
357;SDS011;167;47.558;7.602;2023-04-21T15:37:45;3.30;;;3.10;;
357;SDS011;167;47.558;7.602;2023-04-21T15:40:11;3.90;;;3.60;;
357;SDS011;167;47.558;7.602;2023-04-21T15:42:37;4.20;;;3.90;;
357;SDS011;167;47.558;7.602;2023-04-21T15:45:03;3.80;;;3.60;;
357;SDS011;167;47.558;7.602;2023-04-21T15:47:29;3.50;;;3.30;;